METAR Data
IDs: Format: Raw Decoded Include TAF

Data at: 0406 UTC 20 Oct 2018

PALG 200356Z AUTO 00000KT 10SM CLR 04/01 A2934 RMK AO2 SLP940 T00390006 $
PALG 200256Z AUTO 24003KT 10SM CLR 06/01 A2933 RMK AO2 SLP936 T00610011 56002 $
PALG 200156Z AUTO VRB03KT 10SM CLR 06/01 A2933 RMK AO2 SLP937 T00610006 $
PALG 200056Z AUTO VRB05KT 10SM CLR 06/01 A2932 RMK AO2 SLP934 T00610006 $
PALG 192356Z AUTO 00000KT 10SM CLR 06/01 A2933 RMK AO2 SLP938 T00560006 10061 20006 56016 $
PALG 192321Z AUTO 00000KT 10SM SCT018 06/01 A2934 RMK AO2 $
PALG 192307Z AUTO 36003KT 10SM BKN016 06/01 A2934 RMK AO2 $
PALG 192256Z AUTO VRB04KT 10SM BKN014 05/01 A2934 RMK AO2 SLP940 T00500011 $
PALG 192225Z AUTO 32007KT 10SM BKN012 04/01 A2934 RMK AO2 $
PALG 192217Z AUTO 34006KT 10SM SCT014 04/01 A2935 RMK AO2 $
PALG 192156Z AUTO VRB05KT 10SM BKN014 04/01 A2935 RMK AO2 SLP945 T00440011 $
PALG 192056Z AUTO 00000KT 10SM OVC010 03/01 A2938 RMK AO2 SLP954 T00280006 56005 $
PALG 192009Z AUTO VRB04KT 10SM BKN012 03/01 A2939 RMK AO2 $
PALG 191956Z AUTO VRB05KT 10SM SCT012 03/01 A2938 RMK AO2 SLP954 T00330006 $
PALG 191856Z AUTO 00000KT 10SM CLR 03/01 A2938 RMK AO2 SLP955 T00280011 $
PALG 191756Z AUTO 23005KT 10SM CLR 01/00 A2940 RMK AO2 SLP959 T00110000 10061 21017 56024 FZRANO $
PALG 191656Z AUTO 00000KT 10SM CLR M01/M01 A2941 RMK AO2 SLP966 T10111011 FZRANO $
PALG 191556Z AUTO 00000KT 10SM CLR M01/M02 A2944 RMK AO2 SLP973 T10061017 FZRANO $
PALG 191456Z AUTO VRB03KT 10SM BKN080 01/M01 A2947 RMK AO2 SLP984 T00061006 56024 FZRANO $
PALG 191356Z AUTO 00000KT 10SM CLR 03/02 A2949 RMK AO2 SLP991 T00330017 $
PALG 191256Z AUTO 07006KT 10SM CLR 06/02 A2951 RMK AO2 SLP000 T00610022 $
PALG 191156Z AUTO 08005KT 10SM CLR 06/02 A2954 RMK AO2 SLP008 T00610022 10072 20056 56016 $
PALG 191056Z AUTO 08007KT 10SM CLR 06/03 A2955 RMK AO2 SLP012 T00610028 $
PALG 190956Z AUTO 08009KT 10SM CLR 07/03 A2957 RMK AO2 SLP018 T00670033 $
PALG 190856Z AUTO 08008KT 10SM CLR 07/03 A2959 RMK AO2 SLP024 T00670033 400940056 57013 $
PALG 190756Z AUTO 08009KT 10SM FEW090 07/03 A2960 RMK AO2 SLP029 T00670033 $
PALG 190656Z AUTO 08007KT 10SM FEW085 07/03 A2961 RMK AO2 SLP032 T00670033 $
PALG 190556Z AUTO 08006KT 10SM CLR 07/03 A2963 RMK AO2 SLP037 T00670033 10094 20067 58002 $
PALG 190456Z AUTO 08007KT 10SM CLR 07/03 A2963 RMK AO2 SLP039 T00720033 $
PALG 190356Z AUTO 07008KT 10SM CLR 08/03 A2963 RMK AO2 SLP039 T00780033 $
PALG 190256Z AUTO 08007KT 10SM BKN120 09/04 A2963 RMK AO2 SLP040 T00890039 58006 $
PALG 190156Z AUTO 08008KT 10SM OVC110 09/04 A2964 RMK AO2 SLP042 T00890044 $
PALG 190056Z AUTO 09008KT 10SM BKN070 BKN120 09/04 A2964 RMK AO2 SLP044 T00890044 $
PALG 182356Z AUTO 09009KT 10SM BKN075 OVC090 09/05 A2965 RMK AO2 RAE15 SLP046 P0000 60000 T00890050 10089 20061 58003 $
PALG 182256Z AUTO 09008KT 10SM -RA BKN060 OVC075 08/06 A2967 RMK AO2 RAB23 SLP051 P0000 T00830056 $
PALG 182156Z AUTO 09009KT 050V110 10SM BKN090 09/05 A2966 RMK AO2 RAE04 SLP050 P0000 T00890050 $
PALG 182056Z AUTO 08007KT 10SM -RA BKN065 BKN085 08/05 A2966 RMK AO2 RAB50 SLP049 P0000 60000 T00780050 51009 $
PALG 181956Z AUTO 07007KT 10SM SCT075 08/04 A2965 RMK AO2 SLP046 T00780044 $
PALG 181856Z AUTO 08006KT 10SM FEW085 06/04 A2965 RMK AO2 SLP045 T00610044 $
PALG 181756Z AUTO 08007KT 10SM OVC050 06/04 A2963 RMK AO2 SLP039 T00610039 10067 20061 52012 $
PALG 181656Z AUTO 07007KT 10SM OVC050 07/04 A2962 RMK AO2 SLP035 T00670044 $